This is the latest recevied weather packets stored in our database for station/object KC9MWQ-13. If no packets are shown the sender has not sent any weather packets the latest 10 day(s).
| Time | Temp. | Humidity | Pressure | Rain* | Wind** | Luminosity | Snow |
|---|---|---|---|---|---|---|---|
| 1777910530 | 21.67° C | 66% | 1006.3 hPa | 0 mm | - | 658 W/m² | - |
| 1777910227 | 21.67° C | 69% | 1006.4 hPa | 0 mm | - | 724 W/m² | - |
| 1777909924 | 20.56° C | 69% | 1006.9 hPa | 0 mm | - | 531 W/m² | - |
| 1777909621 | 21.11° C | 68% | 1007 hPa | 0 mm | - | 786 W/m² | - |
| 1777909318 | 21.11° C | 69% | 1006.9 hPa | 0 mm | - | 744 W/m² | - |
| 1777909016 | 20° C | 72% | 1006.8 hPa | 0 mm | - | 763 W/m² | - |
| 1777908714 | 20° C | 70% | 1006.9 hPa | 0 mm | - | 753 W/m² | - |
| 1777908410 | 20° C | 71% | 1006.8 hPa | 0 mm | - | 779 W/m² | - |
| 1777908107 | 20° C | 71% | 1006.7 hPa | 0 mm | - | 787 W/m² | - |
| 1777907803 | 19.44° C | 73% | 1006.9 hPa | 0 mm | - | 769 W/m² | - |
| 1777907498 | 19.44° C | 72% | 1007.2 hPa | 0 mm | - | 803 W/m² | - |
| 1777907196 | 19.44° C | 73% | 1006.9 hPa | 0 mm | - | 857 W/m² | - |
| 1777906892 | 18.89° C | 74% | 1007.1 hPa | 0 mm | - | 830 W/m² | - |
| 1777906590 | 18.89° C | 74% | 1007.1 hPa | 0 mm | - | 776 W/m² | - |
| 1777906285 | 18.33° C | 75% | 1007.5 hPa | 0 mm | - | 707 W/m² | - |
| 1777905982 | 18.33° C | 74% | 1007.2 hPa | 0 mm | - | 682 W/m² | - |
| 1777905679 | 18.33° C | 75% | 1007.3 hPa | 0 mm | - | 750 W/m² | - |
| 1777905375 | 17.78° C | 76% | 1007.1 hPa | 0 mm | - | 711 W/m² | - |
| 1777905074 | 17.78° C | 77% | 1007 hPa | 0 mm | - | 714 W/m² | - |
| 1777904771 | 17.22° C | 76% | 1007.2 hPa | 0 mm | - | 678 W/m² | - |
| 1777904467 | 17.22° C | 76% | 1007.4 hPa | 0 mm | - | 634 W/m² | - |
| 1777904164 | 16.67° C | 78% | 1007.6 hPa | 0 mm | - | 595 W/m² | - |
| 1777903861 | 16.67° C | 77% | 1007.2 hPa | 0 mm | - | 595 W/m² | - |
| 1777903557 | 16.67° C | 78% | 1007.4 hPa | 0 mm | - | 577 W/m² | - |
| 1777903254 | 16.67° C | 77% | 1007.6 hPa | 0 mm | - | 586 W/m² | - |
* Rain latest hour (hover to see other rain measurements)
** Current wind speed in m/s (hover to see current wind gust speed)